Aérodrome :
LOGIN :

S'inscrire | Disclaimer

   EN    FR    IT 

 










Légende :    VFR   VFR Marginal   IFR   IFR Intensif   IFR Très Intensif
Visi : 
Plafond : 
>= 8 km
>= 3000ft
5 à 8 km
1000 à 3000 ft
1500m à 5 km
500 à 1000 ft
800 à 1500m
200 à 500 ft
< 800m
< 200 ft
Symboles :   Orages  Brouillard  Fortes neiges  Fortes précipitations  Vent > 20 kt
SIGMETs :   Divers  Orages  Givrage  Turbulence  Onde Orograph.  Cendres Volcan.







- Altitude de l'aérodrome : 194 ft


EBCV - Chièvres

DERNIER METAR :
  • 171425Z AUTO 32008KT 9999 FEW048/// SCT060/// 23/12 Q1020 BLU

METARs EXPIRÉS :
  • 171355Z AUTO 31005KT 9999 FEW048/// BKN056/// 21/11 Q1020 BLU
  • 171325Z AUTO 33007KT 9999 SCT048/// BKN055/// 21/11 Q1020 BLU
  • 171255Z AUTO 31006KT 9999 BKN049/// 22/11 Q1020 BLU
  • 171225Z AUTO 32007KT 9999 FEW042/// BKN059/// 21/11 Q1020 BLU
  • 171155Z AUTO 33007KT 9999 BKN041/// 22/12 Q1020 BLU
  • 171125Z AUTO 31005KT 9999 SCT042/// 21/11 Q1020 BLU

TAF TAF EBCV
Valide du 17 à 13h jusqu'au 17 à 22h UTC


171141Z 1713/1722 31006KT 9999 FEW035 SCT050
BECMG 1718/1720 28006KT SCT037 SCT320 BY EBWM
Pas de NOTAMs connus pour ce terrain.



MET'MAP, la Météo Aéronautique d'un coup d'oeil ! - Copyright ORBIFLY Décembre 2007 - Disclaimer

ORBIFLY MET'MAP TEAM :

Programmation & Développement : Alexandra Zaïnal
Conception & Développement : Baudouin d'Aumeries
Co-Programmation & Développement : Marc-Olivier Méhu
Soutien technique & logistique : Manuel Goepfert

Contact : metmap@orbifly.com




SOURCES & CREDITS :

   NOAA